createdAt,value
2022-10-03T00:03:36.762Z,1.50
2022-10-03T00:06:10.783Z,1.20
2022-10-03T00:08:46.728Z,1.70
2022-10-03T00:11:26.278Z,1.40
2022-10-03T00:14:18.029Z,2.05
2022-10-03T00:17:09.670Z,1.67
2022-10-03T00:19:42.395Z,1.73
2022-10-03T00:22:20.779Z,1.80
2022-10-03T00:25:00.648Z,1.65
2022-10-03T00:27:37.133Z,1.58
2022-10-03T00:30:16.688Z,1.73
2022-10-03T00:32:55.789Z,1.40
2022-10-03T00:35:41.522Z,1.77
2022-10-03T00:38:36.628Z,1.80
2022-10-03T00:41:41.503Z,1.98
2022-10-03T00:44:32.270Z,1.67
2022-10-03T00:47:25.281Z,1.33
2022-10-03T00:50:13.332Z,2.03
2022-10-03T00:53:25.335Z,1.55
2022-10-03T00:56:10.884Z,2.17
2022-10-03T00:58:56.183Z,1.40
2022-10-03T01:01:29.429Z,1.90
2022-10-03T01:04:10.986Z,1.73
2022-10-03T01:07:01.241Z,1.90
2022-10-03T01:09:42.408Z,1.40
2022-10-03T01:12:47.714Z,2.03
2022-10-03T01:15:34.654Z,1.75
2022-10-03T01:18:21.837Z,2.05
2022-10-03T01:21:24.329Z,2.10
2022-10-03T01:24:26.869Z,1.60
2022-10-03T01:27:01.773Z,1.67
2022-10-03T01:29:59.428Z,1.70
2022-10-03T01:33:09.256Z,1.77
2022-10-03T01:35:48.120Z,1.80
2022-10-03T01:38:27.447Z,1.88
2022-10-03T01:41:03.983Z,2.20
2022-10-03T01:43:35.093Z,2.50
2022-10-03T01:46:17.362Z,1.92
2022-10-03T01:48:52.544Z,2.20
2022-10-03T01:51:27.510Z,2.38
2022-10-03T01:54:26.291Z,2.80
2022-10-03T01:56:58.506Z,1.98
2022-10-03T01:59:35.201Z,2.25
2022-10-03T02:02:10.452Z,2.45
2022-10-03T02:04:48.364Z,2.63
2022-10-03T02:07:43.434Z,2.20
2022-10-03T02:10:32.536Z,2.13
2022-10-03T02:13:09.377Z,2.20
2022-10-03T02:15:49.085Z,2.70
2022-10-03T02:18:48.840Z,2.78
2022-10-03T02:21:25.130Z,2.08
2022-10-03T02:24:06.584Z,2.33
2022-10-03T02:26:57.196Z,2.28
2022-10-03T02:29:50.249Z,2.15
2022-10-03T02:32:54.516Z,2.40
2022-10-03T02:35:46.037Z,1.98
2022-10-03T02:38:59.676Z,2.22
2022-10-03T02:41:48.345Z,2.35
2022-10-03T02:44:40.368Z,2.25
2022-10-03T02:47:59.976Z,2.50
2022-10-03T02:51:04.645Z,2.38
2022-10-03T02:53:59.398Z,2.42
2022-10-03T02:56:48.228Z,2.65
2022-10-03T02:59:43.094Z,2.60
2022-10-03T03:02:34.225Z,2.70
2022-10-03T03:05:24.040Z,2.80
2022-10-03T03:08:13.955Z,2.40
2022-10-03T03:11:08.614Z,2.90
2022-10-03T03:14:32.408Z,3.03
2022-10-03T03:17:41.571Z,2.70
2022-10-03T03:20:23.323Z,2.92
2022-10-03T03:23:42.569Z,2.50
2022-10-03T03:26:28.868Z,2.42
2022-10-03T03:29:49.990Z,2.40
2022-10-03T03:32:27.149Z,2.08
2022-10-03T03:35:13.772Z,3.20
2022-10-03T03:38:25.595Z,2.28
2022-10-03T03:41:14.474Z,2.15
2022-10-03T03:44:19.626Z,2.15
2022-10-03T03:47:01.537Z,2.15
2022-10-03T03:49:42.432Z,2.35
2022-10-03T03:52:21.250Z,2.28
2022-10-03T03:55:08.258Z,2.20
2022-10-03T03:57:50.927Z,2.10
2022-10-03T04:00:31.411Z,2.25
2022-10-03T04:03:01.351Z,2.47
2022-10-03T04:06:02.355Z,2.80
2022-10-03T04:08:59.205Z,2.03
2022-10-03T04:11:54.444Z,2.97
2022-10-03T04:14:45.806Z,2.00
2022-10-03T04:18:02.778Z,2.03
2022-10-03T04:21:00.886Z,2.40
2022-10-03T04:23:46.065Z,1.90
2022-10-03T04:26:43.782Z,2.00
2022-10-03T04:29:17.144Z,2.03
2022-10-03T04:31:57.938Z,1.83
2022-10-03T04:35:08.142Z,2.33
2022-10-03T04:37:47.593Z,1.58
2022-10-03T04:40:33.628Z,2.20
2022-10-03T04:43:37.415Z,2.30
2022-10-03T04:46:14.355Z,2.17
2022-10-03T04:48:46.843Z,2.00
2022-10-03T04:51:21.309Z,2.05
2022-10-03T04:54:44.542Z,1.80
2022-10-03T04:57:20.352Z,1.80
2022-10-03T04:59:55.382Z,2.45
2022-10-03T05:02:35.160Z,2.15
2022-10-03T05:05:21.390Z,1.50
2022-10-03T05:08:16.843Z,1.98
2022-10-03T05:10:50.475Z,1.90
2022-10-03T05:13:39.528Z,2.38
2022-10-03T05:16:23.598Z,1.83
2022-10-03T05:19:10.048Z,2.28
2022-10-03T05:22:03.517Z,2.28
2022-10-03T05:24:36.175Z,2.08
2022-10-03T05:27:20.945Z,2.30
2022-10-03T05:30:07.399Z,1.98
2022-10-03T05:32:44.483Z,1.83
2022-10-03T05:35:36.127Z,2.20
2022-10-03T05:38:24.458Z,2.25
2022-10-03T05:41:30.352Z,1.85
2022-10-03T05:44:23.128Z,1.90
2022-10-03T05:47:32.472Z,2.22
2022-10-03T05:50:21.053Z,1.92
2022-10-03T05:53:06.718Z,2.10
2022-10-03T05:55:46.276Z,2.03
2022-10-03T05:58:16.063Z,2.40
2022-10-03T06:01:01.894Z,2.10
2022-10-03T06:03:56.872Z,2.28
2022-10-03T06:06:45.509Z,1.73
2022-10-03T06:09:34.475Z,1.33
2022-10-03T06:12:10.925Z,1.90
2022-10-03T06:15:04.417Z,1.88
2022-10-03T06:17:56.927Z,1.92
2022-10-03T06:20:38.939Z,1.55
2022-10-03T06:26:03.874Z,1.27
2022-10-03T06:28:33.820Z,1.48
2022-10-03T06:31:43.229Z,1.20
2022-10-03T06:34:41.811Z,1.27
2022-10-03T06:37:51.787Z,1.52
2022-10-03T06:40:43.294Z,1.35
2022-10-03T06:43:47.453Z,1.35
2022-10-03T06:46:51.864Z,2.30
2022-10-03T06:49:57.323Z,2.30
2022-10-03T06:52:34.066Z,2.70
2022-10-03T06:55:04.532Z,2.15
2022-10-03T06:57:56.284Z,2.58
2022-10-03T07:00:43.199Z,2.58
2022-10-03T07:03:48.116Z,2.40
2022-10-03T07:06:33.551Z,2.33
2022-10-03T07:09:15.705Z,2.28
2022-10-03T07:12:09.692Z,2.50
2022-10-03T07:15:03.870Z,2.88
2022-10-03T07:17:55.554Z,2.35
2022-10-03T07:20:33.122Z,2.67
2022-10-03T07:23:12.357Z,1.88
2022-10-03T07:26:05.537Z,2.42
2022-10-03T07:29:14.216Z,1.90
2022-10-03T07:31:44.566Z,2.40
2022-10-03T07:34:32.133Z,2.33
2022-10-03T07:37:51.664Z,1.60
2022-10-03T07:40:40.840Z,1.67
2022-10-03T07:43:44.711Z,1.50
2022-10-03T07:46:46.691Z,1.25
2022-10-03T07:49:27.032Z,2.55
2022-10-03T07:52:33.245Z,2.50
2022-10-03T07:55:00.226Z,1.60
2022-10-03T07:57:43.957Z,2.25
2022-10-03T08:00:16.827Z,1.63
2022-10-03T08:03:02.405Z,1.60
2022-10-03T08:05:41.817Z,1.90
2022-10-03T08:08:11.821Z,1.67
2022-10-03T08:11:03.443Z,1.67
2022-10-03T08:14:04.797Z,1.60
2022-10-03T08:16:52.613Z,1.80
2022-10-03T08:19:22.505Z,1.95
2022-10-03T08:22:14.420Z,1.77
2022-10-03T08:25:12.405Z,1.60
2022-10-03T08:28:00.356Z,1.63
2022-10-03T08:30:57.967Z,1.88
2022-10-03T08:33:37.397Z,1.70
2022-10-03T08:36:16.730Z,2.05
2022-10-03T08:39:02.442Z,1.88
2022-10-03T08:41:48.127Z,1.30
2022-10-03T08:44:33.366Z,1.67
2022-10-03T08:47:09.624Z,1.48
2022-10-03T08:50:05.304Z,2.30
2022-10-03T08:53:00.759Z,1.48
2022-10-03T08:55:27.712Z,1.63
2022-10-03T08:57:57.814Z,0.80
2022-10-03T09:00:40.590Z,0.88
2022-10-03T09:03:39.261Z,1.15
2022-10-03T09:06:24.961Z,0.93
2022-10-03T09:09:22.902Z,0.70
2022-10-03T09:12:18.386Z,0.77
2022-10-03T09:15:07.425Z,0.90
2022-10-03T09:18:13.293Z,0.93
2022-10-03T09:21:08.103Z,0.90
2022-10-03T09:24:18.689Z,0.93
2022-10-03T09:26:51.760Z,0.82
2022-10-03T09:30:15.614Z,0.95
2022-10-03T09:33:10.494Z,0.80
2022-10-03T09:35:40.339Z,1.13
2022-10-03T09:38:28.883Z,0.85
2022-10-03T09:41:10.830Z,1.23
2022-10-03T09:43:57.186Z,0.95
2022-10-03T09:47:20.723Z,1.52
2022-10-03T09:49:53.339Z,1.05
2022-10-03T09:52:29.218Z,0.90
2022-10-03T09:55:12.750Z,0.98
2022-10-03T09:57:48.405Z,0.90
2022-10-03T10:00:22.995Z,1.10
2022-10-03T10:03:01.893Z,1.02
2022-10-03T10:05:34.905Z,1.00
2022-10-03T10:08:13.909Z,1.10
2022-10-03T10:11:38.295Z,1.00
2022-10-03T10:14:26.618Z,0.70
2022-10-03T10:17:31.294Z,0.82
2022-10-03T10:20:18.754Z,1.15
2022-10-03T10:23:05.744Z,1.02
2022-10-03T10:25:51.384Z,1.00
2022-10-03T10:28:48.579Z,0.93
2022-10-03T10:31:34.380Z,0.80
2022-10-03T10:34:13.639Z,0.95
2022-10-03T10:36:59.332Z,0.90
2022-10-03T10:39:39.684Z,1.10
2022-10-03T10:42:28.390Z,0.90
2022-10-03T10:45:43.199Z,1.05
2022-10-03T10:48:34.920Z,1.00
2022-10-03T10:51:27.685Z,1.42
2022-10-03T10:54:24.982Z,1.35
2022-10-03T10:57:17.489Z,1.33
2022-10-03T10:59:56.571Z,1.23
2022-10-03T11:03:01.175Z,1.17
2022-10-03T11:05:46.891Z,1.27
2022-10-03T11:08:33.260Z,1.15
2022-10-03T11:11:41.955Z,1.27
2022-10-03T11:14:46.804Z,1.40
2022-10-03T11:18:08.567Z,1.45
2022-10-03T11:20:48.265Z,1.45
2022-10-03T11:23:36.718Z,1.33
2022-10-03T11:26:34.051Z,2.20
2022-10-03T11:29:23.308Z,1.73
2022-10-03T11:31:59.940Z,1.73
2022-10-03T11:34:51.793Z,2.30
2022-10-03T11:37:29.968Z,1.90
2022-10-03T11:39:59.444Z,2.33
2022-10-03T11:42:51.868Z,1.48
2022-10-03T11:45:26.108Z,1.63
2022-10-03T11:48:17.040Z,2.08
2022-10-03T11:51:20.426Z,1.70
2022-10-03T11:54:30.440Z,1.55
2022-10-03T12:00:18.560Z,1.75
2022-10-03T12:03:07.733Z,1.52
2022-10-03T12:05:49.520Z,1.48
2022-10-03T12:08:54.889Z,1.30
2022-10-03T12:11:29.581Z,1.63
2022-10-03T12:14:29.510Z,1.80
2022-10-03T12:17:06.099Z,1.30
2022-10-03T12:20:03.965Z,1.58
2022-10-03T12:22:51.817Z,1.40
2022-10-03T12:25:29.093Z,1.25
2022-10-03T12:28:18.436Z,1.35
2022-10-03T12:30:55.505Z,1.00
2022-10-03T12:33:41.408Z,1.17
2022-10-03T12:36:16.654Z,1.33
2022-10-03T12:39:19.326Z,1.45
2022-10-03T12:42:17.364Z,1.13
2022-10-03T12:45:12.425Z,1.05
2022-10-03T12:48:10.440Z,1.10
2022-10-03T12:50:55.210Z,0.93
2022-10-03T12:54:02.843Z,0.90
2022-10-03T12:56:42.953Z,1.30
2022-10-03T12:59:31.689Z,1.10
2022-10-03T13:02:23.617Z,1.00
2022-10-03T13:05:05.591Z,1.08
2022-10-03T13:07:53.037Z,1.08
2022-10-03T13:10:32.983Z,0.98
2022-10-03T13:13:09.037Z,0.68
2022-10-03T13:15:55.567Z,1.20
2022-10-03T13:18:43.042Z,1.10
2022-10-03T13:21:43.855Z,1.05
2022-10-03T13:24:32.535Z,1.30
2022-10-03T13:27:12.506Z,1.50
2022-10-03T13:29:44.109Z,1.35
2022-10-03T13:32:31.438Z,1.77
2022-10-03T13:35:21.429Z,1.77
2022-10-03T13:38:26.938Z,1.50
2022-10-03T13:41:12.643Z,2.00
2022-10-03T13:43:46.213Z,1.30
2022-10-03T13:46:19.983Z,1.40
2022-10-03T13:49:01.949Z,1.50
2022-10-03T13:51:47.562Z,1.40
2022-10-03T13:54:21.456Z,1.30
2022-10-03T13:57:02.033Z,2.40
2022-10-03T13:59:39.221Z,1.42
2022-10-03T14:02:43.838Z,1.35
2022-10-03T14:05:39.697Z,1.35
2022-10-03T14:08:25.782Z,1.20
2022-10-03T14:11:31.750Z,1.23
2022-10-03T14:14:34.907Z,1.30
2022-10-03T14:17:11.651Z,1.35
2022-10-03T14:19:55.601Z,2.60
2022-10-03T14:22:32.563Z,2.85
2022-10-03T14:25:25.254Z,2.25
2022-10-03T14:27:55.706Z,1.67
2022-10-03T14:31:05.642Z,2.55
2022-10-03T14:33:41.891Z,1.60
2022-10-03T14:36:30.583Z,1.20
2022-10-03T14:39:22.005Z,1.10
2022-10-03T14:41:52.236Z,1.40
2022-10-03T14:44:35.673Z,1.77
2022-10-03T14:47:09.716Z,1.73
2022-10-03T14:49:54.991Z,1.65
2022-10-03T14:52:39.857Z,1.58
2022-10-03T14:55:17.954Z,1.60
2022-10-03T14:58:09.300Z,1.60
2022-10-03T15:01:02.131Z,1.33
2022-10-03T15:04:00.142Z,1.42
2022-10-03T15:06:54.184Z,1.30
2022-10-03T15:09:50.137Z,1.50
2022-10-03T15:12:28.475Z,1.60
2022-10-03T15:15:07.837Z,1.17
2022-10-03T15:17:46.005Z,1.73
2022-10-03T15:20:13.967Z,1.67
2022-10-03T15:22:49.849Z,1.58
2022-10-03T15:25:39.967Z,1.60
2022-10-03T15:28:14.388Z,1.95
2022-10-03T15:30:43.590Z,1.63
2022-10-03T15:33:25.528Z,1.33
2022-10-03T15:35:59.341Z,1.23
2022-10-03T15:38:35.587Z,1.42
2022-10-03T15:41:11.595Z,1.42
2022-10-03T15:43:46.536Z,1.60
2022-10-03T15:46:44.348Z,1.75
2022-10-03T15:49:25.457Z,1.70
2022-10-03T15:51:55.381Z,1.50
2022-10-03T15:54:26.497Z,1.80
2022-10-03T15:57:00.036Z,1.63
2022-10-03T15:59:45.255Z,1.10
2022-10-03T16:02:26.004Z,1.42
2022-10-03T16:04:57.514Z,1.40
2022-10-03T16:07:30.515Z,1.20
2022-10-03T16:10:25.058Z,1.63
2022-10-03T16:13:23.660Z,0.93
2022-10-03T16:16:13.398Z,1.30
2022-10-03T16:18:52.139Z,1.25
2022-10-03T16:21:47.090Z,1.10
2022-10-03T16:24:36.729Z,0.98
2022-10-03T16:27:14.362Z,1.00
2022-10-03T16:29:50.000Z,0.57
2022-10-03T16:32:23.013Z,1.30
2022-10-03T16:34:50.645Z,0.70
2022-10-03T16:37:26.988Z,0.98
2022-10-03T16:40:07.558Z,0.70
2022-10-03T16:42:58.974Z,0.93
2022-10-03T16:45:41.533Z,0.97
2022-10-03T16:48:46.003Z,0.85
2022-10-03T16:51:39.927Z,1.08
2022-10-03T16:54:14.045Z,0.80
2022-10-03T16:56:48.906Z,1.10
2022-10-03T16:59:21.073Z,0.98
2022-10-03T17:01:56.378Z,1.10
2022-10-03T17:04:25.567Z,1.10
2022-10-03T17:06:56.266Z,1.00
2022-10-03T17:09:46.461Z,1.13
2022-10-03T17:12:20.210Z,0.88
2022-10-03T17:14:48.981Z,0.80
2022-10-03T17:17:46.601Z,0.93
2022-10-03T17:20:16.438Z,0.90
2022-10-03T17:23:01.650Z,1.50
2022-10-03T17:25:49.563Z,1.38
2022-10-03T17:28:41.500Z,1.35
2022-10-03T17:31:34.896Z,1.85
2022-10-03T17:34:11.511Z,1.80
2022-10-03T17:37:02.910Z,1.50
2022-10-03T17:39:38.609Z,1.67
2022-10-03T17:42:18.970Z,1.60
2022-10-03T17:45:01.661Z,1.55
2022-10-03T17:48:10.651Z,1.83
2022-10-03T17:51:02.986Z,2.30
2022-10-03T17:56:16.462Z,1.80
2022-10-03T17:58:49.681Z,2.05
2022-10-03T18:01:20.334Z,2.10
2022-10-03T18:03:58.322Z,2.08
2022-10-03T18:06:35.468Z,2.30
2022-10-03T18:09:18.839Z,1.85
2022-10-03T18:11:49.987Z,2.75
2022-10-03T18:14:39.807Z,7.65
2022-10-03T18:17:20.149Z,6.20
2022-10-03T18:19:47.602Z,7.45
2022-10-03T18:22:24.226Z,6.95
2022-10-03T18:24:56.742Z,3.80
2022-10-03T18:27:39.176Z,2.58
2022-10-03T18:30:17.786Z,2.50
2022-10-03T18:32:46.822Z,3.42
2022-10-03T18:35:17.522Z,2.38
2022-10-03T18:37:44.338Z,2.50
2022-10-03T18:40:14.435Z,2.30
2022-10-03T18:42:45.784Z,2.47
2022-10-03T18:45:33.849Z,2.97
2022-10-03T18:48:07.867Z,2.47
2022-10-03T18:50:41.480Z,2.67
2022-10-03T18:53:21.185Z,2.50
2022-10-03T18:55:59.349Z,2.42
2022-10-03T18:58:41.732Z,2.20
2022-10-03T19:01:24.994Z,2.27
2022-10-03T19:04:00.583Z,2.00
2022-10-03T19:06:33.430Z,3.08
2022-10-03T19:09:09.786Z,3.63
2022-10-03T19:11:43.304Z,3.15
2022-10-03T19:14:16.515Z,2.88
2022-10-03T19:17:21.441Z,3.55
2022-10-03T19:20:31.772Z,4.35
2022-10-03T19:22:58.765Z,2.80
2022-10-03T19:25:27.734Z,3.20
2022-10-03T19:28:02.361Z,2.80
2022-10-03T19:30:32.106Z,2.33
2022-10-03T19:33:07.174Z,2.40
2022-10-03T19:35:39.409Z,2.17
2022-10-03T19:40:55.983Z,2.65
2022-10-03T19:43:43.238Z,2.50
2022-10-03T19:46:22.706Z,2.10
2022-10-03T19:49:02.695Z,2.70
2022-10-03T19:51:29.801Z,2.60
2022-10-03T19:53:58.194Z,3.72
2022-10-03T19:56:27.498Z,3.80
2022-10-03T19:59:15.573Z,7.22
2022-10-03T20:01:48.417Z,4.70
2022-10-03T20:04:36.955Z,4.10
2022-10-03T20:07:17.416Z,5.68
2022-10-03T20:09:57.390Z,6.63
2022-10-03T20:12:30.696Z,5.18
2022-10-03T20:15:03.580Z,3.20
2022-10-03T20:17:32.488Z,3.40
2022-10-03T20:20:08.568Z,3.25
2022-10-03T20:22:37.403Z,3.50
2022-10-03T20:25:07.619Z,3.33
2022-10-03T20:27:46.439Z,3.95
2022-10-03T20:30:31.716Z,3.15
2022-10-03T20:32:59.654Z,2.97
2022-10-03T20:35:54.057Z,2.70
2022-10-03T20:38:47.318Z,2.53
2022-10-03T20:41:29.664Z,3.10
2022-10-03T20:44:35.988Z,2.90
2022-10-03T20:47:17.700Z,2.60
2022-10-03T20:49:51.455Z,2.58
2022-10-03T20:52:21.089Z,3.35
2022-10-03T20:54:54.158Z,2.95
2022-10-03T20:57:34.449Z,2.75
2022-10-03T21:00:12.548Z,2.70
2022-10-03T21:02:39.580Z,3.40
2022-10-03T21:05:19.246Z,2.78
2022-10-03T21:07:55.532Z,2.65
2022-10-03T21:10:30.100Z,3.10
2022-10-03T21:12:59.517Z,3.05
2022-10-03T21:15:29.757Z,3.42
2022-10-03T21:17:57.908Z,2.67
2022-10-03T21:20:33.787Z,2.65
2022-10-03T21:23:05.076Z,3.08
2022-10-03T21:25:35.638Z,3.15
2022-10-03T21:28:04.364Z,3.20
2022-10-03T21:31:08.842Z,2.90
2022-10-03T21:34:17.791Z,2.58
2022-10-03T21:36:44.546Z,3.22
2022-10-03T21:39:57.239Z,3.10
2022-10-03T21:42:43.617Z,3.30
2022-10-03T21:45:19.177Z,2.97
2022-10-03T21:47:54.166Z,2.47
2022-10-03T21:50:27.588Z,2.72
2022-10-03T21:53:19.561Z,2.63
2022-10-03T21:56:13.881Z,2.63
2022-10-03T21:58:43.749Z,2.80
2022-10-03T22:01:35.197Z,2.55
2022-10-03T22:04:15.402Z,2.60
2022-10-03T22:07:15.740Z,2.67
2022-10-03T22:09:53.936Z,2.42
2022-10-03T22:12:22.346Z,2.50
2022-10-03T22:15:19.773Z,2.83
2022-10-03T22:17:51.721Z,2.17
2022-10-03T22:20:22.874Z,2.25
2022-10-03T22:23:37.422Z,2.63
2022-10-03T22:26:10.419Z,2.60
2022-10-03T22:28:46.400Z,2.20
2022-10-03T22:31:19.265Z,2.70
2022-10-03T22:33:55.028Z,2.65
2022-10-03T22:36:22.263Z,2.55
2022-10-03T22:38:50.942Z,2.20
2022-10-03T22:41:25.265Z,2.08
2022-10-03T22:43:54.761Z,2.17
2022-10-03T22:46:26.600Z,2.35
2022-10-03T22:51:26.001Z,2.47
2022-10-03T22:53:58.219Z,2.58
2022-10-03T22:56:38.093Z,2.03
2022-10-03T22:59:09.499Z,2.40
2022-10-03T23:01:39.649Z,2.05
2022-10-03T23:04:12.659Z,2.40
2022-10-03T23:07:02.870Z,2.35
2022-10-03T23:09:43.087Z,2.30
2022-10-03T23:12:11.660Z,2.05
2022-10-03T23:14:47.363Z,2.40
2022-10-03T23:17:32.968Z,2.00
2022-10-03T23:20:12.027Z,2.47
2022-10-03T23:22:43.512Z,2.50
2022-10-03T23:25:21.477Z,2.28
2022-10-03T23:28:22.396Z,2.08
2022-10-03T23:30:51.981Z,2.35
2022-10-03T23:33:39.039Z,1.90
2022-10-03T23:36:18.685Z,2.30
2022-10-03T23:38:45.445Z,2.70
2022-10-03T23:41:14.587Z,1.90
2022-10-03T23:43:44.410Z,2.08
2022-10-03T23:46:15.632Z,2.13
2022-10-03T23:48:46.622Z,2.65
2022-10-03T23:51:18.688Z,2.17
2022-10-03T23:53:54.516Z,1.90
2022-10-03T23:56:21.309Z,2.13
2022-10-03T23:58:57.655Z,2.38
